sensor_id;sensor_type;location;lat;lon;timestamp;P1;durP1;ratioP1;P2;durP2;ratioP2
14100;SDS011;7127;49.372;8.166;2023-08-01T00:01:05;2.00;;;1.80;;
14100;SDS011;7127;49.372;8.166;2023-08-01T00:03:32;2.17;;;1.80;;
14100;SDS011;7127;49.372;8.166;2023-08-01T00:05:59;1.70;;;1.60;;
14100;SDS011;7127;49.372;8.166;2023-08-01T00:08:25;1.70;;;1.60;;
14100;SDS011;7127;49.372;8.166;2023-08-01T00:10:54;2.77;;;1.90;;
14100;SDS011;7127;49.372;8.166;2023-08-01T00:13:20;2.70;;;1.93;;
14100;SDS011;7127;49.372;8.166;2023-08-01T00:15:47;2.43;;;1.80;;
14100;SDS011;7127;49.372;8.166;2023-08-01T00:18:14;2.07;;;1.67;;
14100;SDS011;7127;49.372;8.166;2023-08-01T00:20:41;1.77;;;1.60;;
14100;SDS011;7127;49.372;8.166;2023-08-01T00:23:07;2.43;;;1.80;;
14100;SDS011;7127;49.372;8.166;2023-08-01T00:25:34;2.00;;;1.70;;
14100;SDS011;7127;49.372;8.166;2023-08-01T00:28:02;2.83;;;1.50;;
14100;SDS011;7127;49.372;8.166;2023-08-01T00:30:29;2.00;;;1.50;;
14100;SDS011;7127;49.372;8.166;2023-08-01T00:32:56;2.00;;;1.80;;
14100;SDS011;7127;49.372;8.166;2023-08-01T00:35:23;2.17;;;1.70;;
14100;SDS011;7127;49.372;8.166;2023-08-01T00:37:50;2.07;;;1.60;;
14100;SDS011;7127;49.372;8.166;2023-08-01T00:40:16;2.30;;;1.70;;
14100;SDS011;7127;49.372;8.166;2023-08-01T00:42:43;2.37;;;1.60;;
14100;SDS011;7127;49.372;8.166;2023-08-01T00:45:12;2.27;;;1.90;;
14100;SDS011;7127;49.372;8.166;2023-08-01T00:47:39;1.73;;;1.50;;
14100;SDS011;7127;49.372;8.166;2023-08-01T00:50:06;1.70;;;1.60;;
14100;SDS011;7127;49.372;8.166;2023-08-01T00:52:33;1.97;;;1.70;;
14100;SDS011;7127;49.372;8.166;2023-08-01T00:55:01;2.93;;;1.70;;
14100;SDS011;7127;49.372;8.166;2023-08-01T00:57:28;2.60;;;1.63;;
14100;SDS011;7127;49.372;8.166;2023-08-01T00:59:55;2.57;;;1.87;;
14100;SDS011;7127;49.372;8.166;2023-08-01T01:02:23;2.03;;;1.70;;
14100;SDS011;7127;49.372;8.166;2023-08-01T01:04:50;1.80;;;1.53;;
14100;SDS011;7127;49.372;8.166;2023-08-01T01:07:17;2.03;;;1.70;;
14100;SDS011;7127;49.372;8.166;2023-08-01T01:09:45;2.77;;;1.73;;
14100;SDS011;7127;49.372;8.166;2023-08-01T01:12:12;2.30;;;1.60;;
14100;SDS011;7127;49.372;8.166;2023-08-01T01:14:39;2.40;;;1.77;;
14100;SDS011;7127;49.372;8.166;2023-08-01T01:17:06;2.43;;;1.50;;
14100;SDS011;7127;49.372;8.166;2023-08-01T01:19:34;2.33;;;1.70;;
14100;SDS011;7127;49.372;8.166;2023-08-01T01:22:02;2.57;;;1.83;;
14100;SDS011;7127;49.372;8.166;2023-08-01T01:24:30;2.83;;;1.83;;
14100;SDS011;7127;49.372;8.166;2023-08-01T01:26:59;2.00;;;1.73;;
14100;SDS011;7127;49.372;8.166;2023-08-01T01:29:28;2.10;;;1.50;;
14100;SDS011;7127;49.372;8.166;2023-08-01T01:31:55;2.00;;;1.60;;
14100;SDS011;7127;49.372;8.166;2023-08-01T01:34:23;2.63;;;1.50;;
14100;SDS011;7127;49.372;8.166;2023-08-01T01:36:50;1.93;;;1.60;;
14100;SDS011;7127;49.372;8.166;2023-08-01T01:39:18;2.00;;;1.80;;
14100;SDS011;7127;49.372;8.166;2023-08-01T01:41:45;1.80;;;1.50;;
14100;SDS011;7127;49.372;8.166;2023-08-01T01:44:12;2.80;;;1.90;;
14100;SDS011;7127;49.372;8.166;2023-08-01T01:46:39;1.80;;;1.60;;
14100;SDS011;7127;49.372;8.166;2023-08-01T01:49:05;2.20;;;1.83;;
14100;SDS011;7127;49.372;8.166;2023-08-01T01:51:31;2.47;;;1.80;;
14100;SDS011;7127;49.372;8.166;2023-08-01T01:53:58;2.70;;;1.77;;
14100;SDS011;7127;49.372;8.166;2023-08-01T01:56:26;2.23;;;1.83;;
14100;SDS011;7127;49.372;8.166;2023-08-01T01:58:54;2.43;;;1.70;;
14100;SDS011;7127;49.372;8.166;2023-08-01T02:01:21;2.50;;;1.83;;
14100;SDS011;7127;49.372;8.166;2023-08-01T02:03:48;1.97;;;1.67;;
14100;SDS011;7127;49.372;8.166;2023-08-01T02:06:15;2.17;;;1.70;;
14100;SDS011;7127;49.372;8.166;2023-08-01T02:08:42;3.23;;;1.77;;
14100;SDS011;7127;49.372;8.166;2023-08-01T02:11:09;3.80;;;2.00;;
14100;SDS011;7127;49.372;8.166;2023-08-01T02:13:37;3.33;;;1.63;;
14100;SDS011;7127;49.372;8.166;2023-08-01T02:16:04;2.30;;;1.73;;
14100;SDS011;7127;49.372;8.166;2023-08-01T02:18:30;2.03;;;1.80;;
14100;SDS011;7127;49.372;8.166;2023-08-01T02:20:57;2.50;;;1.80;;
14100;SDS011;7127;49.372;8.166;2023-08-01T02:23:24;2.20;;;1.60;;
14100;SDS011;7127;49.372;8.166;2023-08-01T02:25:51;1.80;;;1.60;;
14100;SDS011;7127;49.372;8.166;2023-08-01T02:28:18;2.50;;;1.43;;
14100;SDS011;7127;49.372;8.166;2023-08-01T02:30:46;2.50;;;1.87;;
14100;SDS011;7127;49.372;8.166;2023-08-01T02:33:13;1.97;;;1.63;;
14100;SDS011;7127;49.372;8.166;2023-08-01T02:35:39;2.37;;;1.50;;
14100;SDS011;7127;49.372;8.166;2023-08-01T02:38:06;2.20;;;1.70;;
14100;SDS011;7127;49.372;8.166;2023-08-01T02:40:33;1.70;;;1.60;;
14100;SDS011;7127;49.372;8.166;2023-08-01T02:43:00;1.73;;;1.57;;
14100;SDS011;7127;49.372;8.166;2023-08-01T02:45:27;2.30;;;1.80;;
14100;SDS011;7127;49.372;8.166;2023-08-01T02:47:55;2.17;;;1.60;;
14100;SDS011;7127;49.372;8.166;2023-08-01T02:50:22;2.67;;;1.87;;
14100;SDS011;7127;49.372;8.166;2023-08-01T02:52:48;2.37;;;1.70;;
14100;SDS011;7127;49.372;8.166;2023-08-01T02:55:16;1.53;;;1.43;;
14100;SDS011;7127;49.372;8.166;2023-08-01T02:57:43;1.47;;;1.37;;
14100;SDS011;7127;49.372;8.166;2023-08-01T03:00:10;2.33;;;1.77;;
14100;SDS011;7127;49.372;8.166;2023-08-01T03:02:37;2.53;;;1.90;;
14100;SDS011;7127;49.372;8.166;2023-08-01T03:05:07;2.10;;;1.63;;
14100;SDS011;7127;49.372;8.166;2023-08-01T03:07:34;2.07;;;1.50;;
14100;SDS011;7127;49.372;8.166;2023-08-01T03:10:01;1.60;;;1.40;;
14100;SDS011;7127;49.372;8.166;2023-08-01T03:12:29;1.83;;;1.47;;
14100;SDS011;7127;49.372;8.166;2023-08-01T03:14:56;1.90;;;1.70;;
14100;SDS011;7127;49.372;8.166;2023-08-01T03:17:23;2.00;;;1.70;;
14100;SDS011;7127;49.372;8.166;2023-08-01T03:19:50;1.63;;;1.30;;
14100;SDS011;7127;49.372;8.166;2023-08-01T03:22:18;1.80;;;1.40;;
14100;SDS011;7127;49.372;8.166;2023-08-01T03:24:45;1.80;;;1.60;;
14100;SDS011;7127;49.372;8.166;2023-08-01T03:27:11;1.53;;;1.43;;
14100;SDS011;7127;49.372;8.166;2023-08-01T03:29:38;1.63;;;1.40;;
14100;SDS011;7127;49.372;8.166;2023-08-01T03:32:05;1.20;;;1.10;;
14100;SDS011;7127;49.372;8.166;2023-08-01T03:34:32;1.53;;;1.40;;
14100;SDS011;7127;49.372;8.166;2023-08-01T03:36:59;1.73;;;1.40;;
14100;SDS011;7127;49.372;8.166;2023-08-01T03:39:27;2.20;;;1.37;;
14100;SDS011;7127;49.372;8.166;2023-08-01T03:41:54;1.77;;;1.37;;
14100;SDS011;7127;49.372;8.166;2023-08-01T03:44:21;1.70;;;1.60;;
14100;SDS011;7127;49.372;8.166;2023-08-01T03:46:48;1.50;;;1.40;;
14100;SDS011;7127;49.372;8.166;2023-08-01T03:49:15;1.53;;;1.27;;
14100;SDS011;7127;49.372;8.166;2023-08-01T03:51:42;1.20;;;1.03;;
14100;SDS011;7127;49.372;8.166;2023-08-01T03:54:08;1.23;;;1.13;;
14100;SDS011;7127;49.372;8.166;2023-08-01T03:56:37;1.70;;;1.60;;
14100;SDS011;7127;49.372;8.166;2023-08-01T03:59:04;1.80;;;1.27;;
14100;SDS011;7127;49.372;8.166;2023-08-01T04:01:31;2.33;;;1.30;;
14100;SDS011;7127;49.372;8.166;2023-08-01T04:03:57;1.77;;;1.20;;
14100;SDS011;7127;49.372;8.166;2023-08-01T04:06:24;2.10;;;1.30;;
14100;SDS011;7127;49.372;8.166;2023-08-01T04:08:51;1.20;;;1.10;;
14100;SDS011;7127;49.372;8.166;2023-08-01T04:11:18;1.40;;;1.23;;
14100;SDS011;7127;49.372;8.166;2023-08-01T04:13:46;1.37;;;1.27;;
14100;SDS011;7127;49.372;8.166;2023-08-01T04:16:13;1.40;;;1.30;;
14100;SDS011;7127;49.372;8.166;2023-08-01T04:18:40;1.33;;;1.23;;
14100;SDS011;7127;49.372;8.166;2023-08-01T04:21:08;1.60;;;1.23;;
14100;SDS011;7127;49.372;8.166;2023-08-01T04:23:35;1.07;;;1.00;;
14100;SDS011;7127;49.372;8.166;2023-08-01T04:26:02;1.60;;;1.30;;
14100;SDS011;7127;49.372;8.166;2023-08-01T04:28:31;1.37;;;1.10;;
14100;SDS011;7127;49.372;8.166;2023-08-01T04:30:59;1.50;;;1.30;;
14100;SDS011;7127;49.372;8.166;2023-08-01T04:33:26;2.13;;;1.20;;
14100;SDS011;7127;49.372;8.166;2023-08-01T04:35:53;1.10;;;1.00;;
14100;SDS011;7127;49.372;8.166;2023-08-01T04:38:20;1.17;;;1.07;;
14100;SDS011;7127;49.372;8.166;2023-08-01T04:40:47;1.30;;;1.10;;
14100;SDS011;7127;49.372;8.166;2023-08-01T04:43:13;1.43;;;1.30;;
14100;SDS011;7127;49.372;8.166;2023-08-01T04:45:40;1.67;;;1.50;;
14100;SDS011;7127;49.372;8.166;2023-08-01T04:48:08;2.53;;;1.60;;
14100;SDS011;7127;49.372;8.166;2023-08-01T04:50:35;1.80;;;1.53;;
14100;SDS011;7127;49.372;8.166;2023-08-01T04:53:02;3.00;;;1.73;;
14100;SDS011;7127;49.372;8.166;2023-08-01T04:55:29;2.70;;;1.87;;
14100;SDS011;7127;49.372;8.166;2023-08-01T04:57:56;2.73;;;2.20;;
14100;SDS011;7127;49.372;8.166;2023-08-01T05:00:23;2.20;;;1.90;;
14100;SDS011;7127;49.372;8.166;2023-08-01T05:02:50;2.63;;;2.10;;
14100;SDS011;7127;49.372;8.166;2023-08-01T05:05:18;2.60;;;1.97;;
14100;SDS011;7127;49.372;8.166;2023-08-01T05:07:45;2.20;;;1.77;;
14100;SDS011;7127;49.372;8.166;2023-08-01T05:10:11;2.60;;;2.00;;
14100;SDS011;7127;49.372;8.166;2023-08-01T05:12:38;2.37;;;1.93;;
14100;SDS011;7127;49.372;8.166;2023-08-01T05:15:05;2.17;;;1.97;;
14100;SDS011;7127;49.372;8.166;2023-08-01T05:17:33;2.13;;;1.93;;
14100;SDS011;7127;49.372;8.166;2023-08-01T05:20:00;1.73;;;1.50;;
14100;SDS011;7127;49.372;8.166;2023-08-01T05:22:30;2.00;;;1.77;;
14100;SDS011;7127;49.372;8.166;2023-08-01T05:24:56;2.47;;;2.00;;
14100;SDS011;7127;49.372;8.166;2023-08-01T05:27:23;2.07;;;1.80;;
14100;SDS011;7127;49.372;8.166;2023-08-01T05:29:50;2.00;;;1.80;;
14100;SDS011;7127;49.372;8.166;2023-08-01T05:32:17;1.90;;;1.57;;
14100;SDS011;7127;49.372;8.166;2023-08-01T05:34:43;2.60;;;1.80;;
14100;SDS011;7127;49.372;8.166;2023-08-01T05:37:10;2.47;;;1.60;;
14100;SDS011;7127;49.372;8.166;2023-08-01T05:39:38;1.93;;;1.60;;
14100;SDS011;7127;49.372;8.166;2023-08-01T05:42:06;1.50;;;1.40;;
14100;SDS011;7127;49.372;8.166;2023-08-01T05:44:33;1.50;;;1.40;;
14100;SDS011;7127;49.372;8.166;2023-08-01T05:47:00;1.37;;;1.27;;
14100;SDS011;7127;49.372;8.166;2023-08-01T05:49:27;1.53;;;1.30;;
14100;SDS011;7127;49.372;8.166;2023-08-01T05:51:54;3.63;;;1.43;;
14100;SDS011;7127;49.372;8.166;2023-08-01T05:54:21;1.30;;;1.20;;
14100;SDS011;7127;49.372;8.166;2023-08-01T05:56:49;1.57;;;1.30;;
14100;SDS011;7127;49.372;8.166;2023-08-01T05:59:16;0.97;;;0.90;;
14100;SDS011;7127;49.372;8.166;2023-08-01T06:01:43;0.80;;;0.80;;
14100;SDS011;7127;49.372;8.166;2023-08-01T06:04:10;0.80;;;0.80;;
14100;SDS011;7127;49.372;8.166;2023-08-01T06:06:37;1.20;;;1.10;;
14100;SDS011;7127;49.372;8.166;2023-08-01T06:09:03;1.10;;;1.00;;
14100;SDS011;7127;49.372;8.166;2023-08-01T06:11:30;1.10;;;1.00;;
14100;SDS011;7127;49.372;8.166;2023-08-01T06:13:59;1.20;;;1.10;;
14100;SDS011;7127;49.372;8.166;2023-08-01T06:16:26;1.43;;;1.30;;
14100;SDS011;7127;49.372;8.166;2023-08-01T06:18:53;2.27;;;1.10;;
14100;SDS011;7127;49.372;8.166;2023-08-01T06:21:20;1.23;;;1.13;;
14100;SDS011;7127;49.372;8.166;2023-08-01T06:23:47;1.30;;;1.20;;
14100;SDS011;7127;49.372;8.166;2023-08-01T06:26:14;1.03;;;0.93;;
14100;SDS011;7127;49.372;8.166;2023-08-01T06:28:41;1.30;;;1.00;;
14100;SDS011;7127;49.372;8.166;2023-08-01T06:31:09;0.80;;;0.80;;
14100;SDS011;7127;49.372;8.166;2023-08-01T06:33:36;2.07;;;1.20;;
14100;SDS011;7127;49.372;8.166;2023-08-01T06:36:03;0.80;;;0.77;;
14100;SDS011;7127;49.372;8.166;2023-08-01T06:38:31;0.83;;;0.83;;
14100;SDS011;7127;49.372;8.166;2023-08-01T06:40:58;0.83;;;0.83;;
14100;SDS011;7127;49.372;8.166;2023-08-01T06:43:25;1.00;;;0.87;;
14100;SDS011;7127;49.372;8.166;2023-08-01T06:45:51;1.17;;;0.83;;
14100;SDS011;7127;49.372;8.166;2023-08-01T06:48:19;0.60;;;0.60;;
14100;SDS011;7127;49.372;8.166;2023-08-01T06:50:46;0.67;;;0.53;;
14100;SDS011;7127;49.372;8.166;2023-08-01T06:53:13;0.77;;;0.70;;
14100;SDS011;7127;49.372;8.166;2023-08-01T06:55:40;1.07;;;0.60;;
14100;SDS011;7127;49.372;8.166;2023-08-01T06:58:07;0.57;;;0.57;;
14100;SDS011;7127;49.372;8.166;2023-08-01T07:00:34;0.50;;;0.50;;
14100;SDS011;7127;49.372;8.166;2023-08-01T07:03:01;0.50;;;0.50;;
14100;SDS011;7127;49.372;8.166;2023-08-01T07:05:29;1.00;;;0.40;;
14100;SDS011;7127;49.372;8.166;2023-08-01T07:07:56;0.40;;;0.40;;
14100;SDS011;7127;49.372;8.166;2023-08-01T07:10:23;0.67;;;0.50;;
14100;SDS011;7127;49.372;8.166;2023-08-01T07:12:50;0.40;;;0.40;;
14100;SDS011;7127;49.372;8.166;2023-08-01T07:15:17;0.20;;;0.20;;
14100;SDS011;7127;49.372;8.166;2023-08-01T07:17:44;0.30;;;0.30;;
14100;SDS011;7127;49.372;8.166;2023-08-01T07:20:11;0.30;;;0.30;;
14100;SDS011;7127;49.372;8.166;2023-08-01T07:22:40;0.20;;;0.20;;
14100;SDS011;7127;49.372;8.166;2023-08-01T07:25:07;0.20;;;0.20;;
14100;SDS011;7127;49.372;8.166;2023-08-01T07:27:34;0.20;;;0.20;;
14100;SDS011;7127;49.372;8.166;2023-08-01T07:30:02;0.50;;;0.40;;
14100;SDS011;7127;49.372;8.166;2023-08-01T07:32:30;0.10;;;0.10;;
14100;SDS011;7127;49.372;8.166;2023-08-01T07:34:57;0.20;;;0.20;;
14100;SDS011;7127;49.372;8.166;2023-08-01T07:37:24;0.20;;;0.20;;
14100;SDS011;7127;49.372;8.166;2023-08-01T07:39:54;0.83;;;0.30;;
14100;SDS011;7127;49.372;8.166;2023-08-01T07:42:21;0.23;;;0.23;;
14100;SDS011;7127;49.372;8.166;2023-08-01T07:44:48;0.30;;;0.30;;
14100;SDS011;7127;49.372;8.166;2023-08-01T07:47:15;0.20;;;0.20;;
14100;SDS011;7127;49.372;8.166;2023-08-01T07:49:41;0.40;;;0.30;;
14100;SDS011;7127;49.372;8.166;2023-08-01T07:52:08;0.30;;;0.30;;
14100;SDS011;7127;49.372;8.166;2023-08-01T07:54:35;0.27;;;0.27;;
14100;SDS011;7127;49.372;8.166;2023-08-01T07:57:04;1.13;;;0.20;;
14100;SDS011;7127;49.372;8.166;2023-08-01T07:59:31;0.20;;;0.20;;
14100;SDS011;7127;49.372;8.166;2023-08-01T08:01:58;0.30;;;0.30;;
14100;SDS011;7127;49.372;8.166;2023-08-01T08:04:25;0.30;;;0.30;;
14100;SDS011;7127;49.372;8.166;2023-08-01T08:06:52;0.20;;;0.20;;
14100;SDS011;7127;49.372;8.166;2023-08-01T08:09:20;0.20;;;0.20;;
14100;SDS011;7127;49.372;8.166;2023-08-01T08:11:50;0.10;;;0.10;;
14100;SDS011;7127;49.372;8.166;2023-08-01T08:14:19;0.20;;;0.20;;
14100;SDS011;7127;49.372;8.166;2023-08-01T08:16:46;0.20;;;0.20;;
14100;SDS011;7127;49.372;8.166;2023-08-01T08:19:13;0.80;;;0.50;;
14100;SDS011;7127;49.372;8.166;2023-08-01T08:21:40;0.30;;;0.30;;
14100;SDS011;7127;49.372;8.166;2023-08-01T08:24:07;0.20;;;0.20;;
14100;SDS011;7127;49.372;8.166;2023-08-01T08:26:34;0.50;;;0.50;;
14100;SDS011;7127;49.372;8.166;2023-08-01T08:29:02;0.43;;;0.30;;
14100;SDS011;7127;49.372;8.166;2023-08-01T08:31:31;0.30;;;0.30;;
14100;SDS011;7127;49.372;8.166;2023-08-01T08:33:58;0.20;;;0.20;;
14100;SDS011;7127;49.372;8.166;2023-08-01T08:36:24;0.20;;;0.20;;
14100;SDS011;7127;49.372;8.166;2023-08-01T08:38:51;0.30;;;0.30;;
14100;SDS011;7127;49.372;8.166;2023-08-01T08:41:20;0.43;;;0.43;;
14100;SDS011;7127;49.372;8.166;2023-08-01T08:43:47;0.70;;;0.53;;
14100;SDS011;7127;49.372;8.166;2023-08-01T08:46:15;0.20;;;0.20;;
14100;SDS011;7127;49.372;8.166;2023-08-01T08:48:45;0.30;;;0.30;;
14100;SDS011;7127;49.372;8.166;2023-08-01T08:51:12;0.50;;;0.50;;
14100;SDS011;7127;49.372;8.166;2023-08-01T08:53:40;0.33;;;0.33;;
14100;SDS011;7127;49.372;8.166;2023-08-01T08:56:08;0.40;;;0.40;;
14100;SDS011;7127;49.372;8.166;2023-08-01T08:58:35;0.60;;;0.30;;
14100;SDS011;7127;49.372;8.166;2023-08-01T09:01:03;0.30;;;0.30;;
14100;SDS011;7127;49.372;8.166;2023-08-01T09:03:32;0.20;;;0.20;;
14100;SDS011;7127;49.372;8.166;2023-08-01T09:06:02;0.20;;;0.20;;
14100;SDS011;7127;49.372;8.166;2023-08-01T09:08:35;0.40;;;0.40;;
14100;SDS011;7127;49.372;8.166;2023-08-01T09:11:02;0.60;;;0.40;;
14100;SDS011;7127;49.372;8.166;2023-08-01T09:13:29;0.40;;;0.40;;
14100;SDS011;7127;49.372;8.166;2023-08-01T09:15:56;0.50;;;0.50;;
14100;SDS011;7127;49.372;8.166;2023-08-01T09:18:23;0.40;;;0.40;;
14100;SDS011;7127;49.372;8.166;2023-08-01T09:20:50;0.43;;;0.43;;
14100;SDS011;7127;49.372;8.166;2023-08-01T09:23:19;0.70;;;0.40;;
14100;SDS011;7127;49.372;8.166;2023-08-01T09:25:45;0.43;;;0.40;;
14100;SDS011;7127;49.372;8.166;2023-08-01T09:28:16;0.60;;;0.60;;
14100;SDS011;7127;49.372;8.166;2023-08-01T09:30:47;0.50;;;0.50;;
14100;SDS011;7127;49.372;8.166;2023-08-01T09:33:14;0.30;;;0.30;;
14100;SDS011;7127;49.372;8.166;2023-08-01T09:35:41;0.40;;;0.40;;
14100;SDS011;7127;49.372;8.166;2023-08-01T09:38:09;0.53;;;0.53;;
14100;SDS011;7127;49.372;8.166;2023-08-01T09:40:38;0.50;;;0.50;;
14100;SDS011;7127;49.372;8.166;2023-08-01T09:43:05;0.97;;;0.50;;
14100;SDS011;7127;49.372;8.166;2023-08-01T09:45:32;0.40;;;0.40;;
14100;SDS011;7127;49.372;8.166;2023-08-01T09:48:00;0.57;;;0.53;;
14100;SDS011;7127;49.372;8.166;2023-08-01T09:50:27;0.80;;;0.63;;
14100;SDS011;7127;49.372;8.166;2023-08-01T09:52:54;0.60;;;0.60;;
14100;SDS011;7127;49.372;8.166;2023-08-01T09:55:22;0.53;;;0.53;;
14100;SDS011;7127;49.372;8.166;2023-08-01T09:57:54;0.70;;;0.70;;
14100;SDS011;7127;49.372;8.166;2023-08-01T10:00:24;0.53;;;0.53;;
14100;SDS011;7127;49.372;8.166;2023-08-01T10:02:51;0.80;;;0.70;;
14100;SDS011;7127;49.372;8.166;2023-08-01T10:05:19;0.57;;;0.57;;
14100;SDS011;7127;49.372;8.166;2023-08-01T10:07:47;0.60;;;0.50;;
14100;SDS011;7127;49.372;8.166;2023-08-01T10:10:17;0.70;;;0.60;;
14100;SDS011;7127;49.372;8.166;2023-08-01T10:12:46;1.33;;;0.87;;
14100;SDS011;7127;49.372;8.166;2023-08-01T10:15:15;0.77;;;0.67;;
14100;SDS011;7127;49.372;8.166;2023-08-01T10:17:42;0.83;;;0.80;;
14100;SDS011;7127;49.372;8.166;2023-08-01T10:20:09;0.80;;;0.80;;
14100;SDS011;7127;49.372;8.166;2023-08-01T10:22:38;0.67;;;0.67;;
14100;SDS011;7127;49.372;8.166;2023-08-01T10:25:06;1.07;;;0.97;;
14100;SDS011;7127;49.372;8.166;2023-08-01T10:27:35;1.23;;;0.80;;
14100;SDS011;7127;49.372;8.166;2023-08-01T10:30:02;0.77;;;0.77;;
14100;SDS011;7127;49.372;8.166;2023-08-01T10:32:32;0.98;;;0.82;;
14100;SDS011;7127;49.372;8.166;2023-08-01T10:35:00;0.95;;;0.80;;
14100;SDS011;7127;49.372;8.166;2023-08-01T10:37:38;0.60;;;0.60;;
14100;SDS011;7127;49.372;8.166;2023-08-01T10:40:06;0.70;;;0.70;;
14100;SDS011;7127;49.372;8.166;2023-08-01T10:42:37;1.40;;;0.90;;
14100;SDS011;7127;49.372;8.166;2023-08-01T10:45:05;1.20;;;0.80;;
14100;SDS011;7127;49.372;8.166;2023-08-01T10:47:34;1.47;;;0.93;;
14100;SDS011;7127;49.372;8.166;2023-08-01T10:50:01;1.20;;;1.00;;
14100;SDS011;7127;49.372;8.166;2023-08-01T10:52:28;1.13;;;1.00;;
14100;SDS011;7127;49.372;8.166;2023-08-01T10:54:56;1.10;;;1.00;;
14100;SDS011;7127;49.372;8.166;2023-08-01T10:57:24;1.00;;;0.70;;
14100;SDS011;7127;49.372;8.166;2023-08-01T10:59:52;0.63;;;0.63;;
14100;SDS011;7127;49.372;8.166;2023-08-01T11:02:20;2.05;;;0.90;;
14100;SDS011;7127;49.372;8.166;2023-08-01T11:04:57;1.37;;;0.83;;
14100;SDS011;7127;49.372;8.166;2023-08-01T11:07:24;0.57;;;0.57;;
14100;SDS011;7127;49.372;8.166;2023-08-01T11:10:02;1.13;;;0.83;;
14100;SDS011;7127;49.372;8.166;2023-08-01T11:12:30;0.90;;;0.90;;
14100;SDS011;7127;49.372;8.166;2023-08-01T11:14:58;1.45;;;1.08;;
14100;SDS011;7127;49.372;8.166;2023-08-01T11:17:26;0.73;;;0.70;;
14100;SDS011;7127;49.372;8.166;2023-08-01T11:20:01;1.17;;;1.00;;
14100;SDS011;7127;49.372;8.166;2023-08-01T11:22:29;1.00;;;0.80;;
14100;SDS011;7127;49.372;8.166;2023-08-01T11:24:56;0.60;;;0.60;;
14100;SDS011;7127;49.372;8.166;2023-08-01T11:27:23;1.13;;;0.90;;
14100;SDS011;7127;49.372;8.166;2023-08-01T11:29:50;1.42;;;0.88;;
14100;SDS011;7127;49.372;8.166;2023-08-01T11:32:18;0.90;;;0.80;;
14100;SDS011;7127;49.372;8.166;2023-08-01T11:34:46;0.90;;;0.60;;
14100;SDS011;7127;49.372;8.166;2023-08-01T11:37:15;1.00;;;0.90;;
14100;SDS011;7127;49.372;8.166;2023-08-01T11:39:45;1.00;;;0.85;;
14100;SDS011;7127;49.372;8.166;2023-08-01T11:42:14;1.50;;;1.10;;
14100;SDS011;7127;49.372;8.166;2023-08-01T11:44:42;1.52;;;1.00;;
14100;SDS011;7127;49.372;8.166;2023-08-01T11:47:12;1.20;;;0.73;;
14100;SDS011;7127;49.372;8.166;2023-08-01T11:49:44;1.02;;;0.93;;
14100;SDS011;7127;49.372;8.166;2023-08-01T11:52:23;0.90;;;0.90;;
14100;SDS011;7127;49.372;8.166;2023-08-01T11:54:51;1.35;;;1.20;;
14100;SDS011;7127;49.372;8.166;2023-08-01T11:57:19;1.52;;;0.90;;
14100;SDS011;7127;49.372;8.166;2023-08-01T11:59:46;1.48;;;1.10;;
14100;SDS011;7127;49.372;8.166;2023-08-01T12:02:20;1.65;;;1.00;;
14100;SDS011;7127;49.372;8.166;2023-08-01T12:04:48;1.10;;;0.95;;
14100;SDS011;7127;49.372;8.166;2023-08-01T12:07:15;1.02;;;0.90;;
14100;SDS011;7127;49.372;8.166;2023-08-01T12:09:44;1.27;;;0.90;;
14100;SDS011;7127;49.372;8.166;2023-08-01T12:12:11;1.00;;;0.88;;
14100;SDS011;7127;49.372;8.166;2023-08-01T12:14:41;1.00;;;0.80;;
14100;SDS011;7127;49.372;8.166;2023-08-01T12:17:08;0.88;;;0.88;;
14100;SDS011;7127;49.372;8.166;2023-08-01T12:19:35;2.55;;;1.20;;
14100;SDS011;7127;49.372;8.166;2023-08-01T12:22:01;1.33;;;0.98;;
14100;SDS011;7127;49.372;8.166;2023-08-01T12:24:28;1.55;;;1.10;;
14100;SDS011;7127;49.372;8.166;2023-08-01T12:26:57;1.63;;;1.10;;
14100;SDS011;7127;49.372;8.166;2023-08-01T12:29:24;1.63;;;1.08;;
14100;SDS011;7127;49.372;8.166;2023-08-01T12:31:51;0.90;;;0.90;;
14100;SDS011;7127;49.372;8.166;2023-08-01T12:34:18;1.48;;;1.00;;
14100;SDS011;7127;49.372;8.166;2023-08-01T12:36:44;1.08;;;0.90;;
14100;SDS011;7127;49.372;8.166;2023-08-01T12:39:11;0.80;;;0.80;;
14100;SDS011;7127;49.372;8.166;2023-08-01T12:41:38;1.45;;;0.90;;
14100;SDS011;7127;49.372;8.166;2023-08-01T12:44:06;0.90;;;0.90;;
14100;SDS011;7127;49.372;8.166;2023-08-01T12:46:33;1.50;;;1.00;;
14100;SDS011;7127;49.372;8.166;2023-08-01T12:49:00;1.08;;;0.90;;
14100;SDS011;7127;49.372;8.166;2023-08-01T12:51:27;0.90;;;0.80;;
14100;SDS011;7127;49.372;8.166;2023-08-01T12:53:54;2.10;;;0.90;;
14100;SDS011;7127;49.372;8.166;2023-08-01T12:56:21;1.17;;;0.88;;
14100;SDS011;7127;49.372;8.166;2023-08-01T12:58:48;1.77;;;1.17;;
14100;SDS011;7127;49.372;8.166;2023-08-01T13:01:16;1.83;;;0.77;;
14100;SDS011;7127;49.372;8.166;2023-08-01T13:03:43;0.80;;;0.80;;
14100;SDS011;7127;49.372;8.166;2023-08-01T13:06:10;1.48;;;1.08;;
14100;SDS011;7127;49.372;8.166;2023-08-01T13:08:38;1.00;;;0.90;;
14100;SDS011;7127;49.372;8.166;2023-08-01T13:11:11;1.27;;;1.00;;
14100;SDS011;7127;49.372;8.166;2023-08-01T13:13:39;0.73;;;0.73;;
14100;SDS011;7127;49.372;8.166;2023-08-01T13:16:06;0.93;;;0.85;;
14100;SDS011;7127;49.372;8.166;2023-08-01T13:18:35;0.80;;;0.80;;
14100;SDS011;7127;49.372;8.166;2023-08-01T13:21:08;1.55;;;0.90;;
14100;SDS011;7127;49.372;8.166;2023-08-01T13:23:35;1.35;;;0.90;;
14100;SDS011;7127;49.372;8.166;2023-08-01T13:26:02;1.25;;;1.00;;
14100;SDS011;7127;49.372;8.166;2023-08-01T13:28:29;0.75;;;0.70;;
14100;SDS011;7127;49.372;8.166;2023-08-01T13:30:55;0.80;;;0.70;;
14100;SDS011;7127;49.372;8.166;2023-08-01T13:33:22;1.20;;;1.00;;
14100;SDS011;7127;49.372;8.166;2023-08-01T13:35:52;0.80;;;0.75;;
14100;SDS011;7127;49.372;8.166;2023-08-01T13:38:19;1.23;;;0.85;;
14100;SDS011;7127;49.372;8.166;2023-08-01T13:40:45;0.95;;;0.80;;
14100;SDS011;7127;49.372;8.166;2023-08-01T13:43:12;1.05;;;0.90;;
14100;SDS011;7127;49.372;8.166;2023-08-01T13:45:39;1.10;;;0.80;;
14100;SDS011;7127;49.372;8.166;2023-08-01T13:48:06;0.75;;;0.75;;
14100;SDS011;7127;49.372;8.166;2023-08-01T13:50:33;0.93;;;0.82;;
14100;SDS011;7127;49.372;8.166;2023-08-01T13:53:01;1.13;;;1.00;;
14100;SDS011;7127;49.372;8.166;2023-08-01T13:55:28;0.80;;;0.80;;
14100;SDS011;7127;49.372;8.166;2023-08-01T13:57:55;1.10;;;0.80;;
14100;SDS011;7127;49.372;8.166;2023-08-01T14:00:22;0.90;;;0.82;;
14100;SDS011;7127;49.372;8.166;2023-08-01T14:02:49;1.40;;;0.77;;
14100;SDS011;7127;49.372;8.166;2023-08-01T14:05:17;1.00;;;0.70;;
14100;SDS011;7127;49.372;8.166;2023-08-01T14:07:43;0.80;;;0.80;;
14100;SDS011;7127;49.372;8.166;2023-08-01T14:10:12;0.90;;;0.85;;
14100;SDS011;7127;49.372;8.166;2023-08-01T14:12:39;0.80;;;0.80;;
14100;SDS011;7127;49.372;8.166;2023-08-01T14:15:06;0.93;;;0.77;;
14100;SDS011;7127;49.372;8.166;2023-08-01T14:17:34;0.93;;;0.85;;
14100;SDS011;7127;49.372;8.166;2023-08-01T14:20:01;0.82;;;0.82;;
14100;SDS011;7127;49.372;8.166;2023-08-01T14:22:30;1.63;;;1.10;;
14100;SDS011;7127;49.372;8.166;2023-08-01T14:24:57;1.30;;;1.17;;
14100;SDS011;7127;49.372;8.166;2023-08-01T14:27:25;0.85;;;0.77;;
14100;SDS011;7127;49.372;8.166;2023-08-01T14:29:52;1.17;;;0.73;;
14100;SDS011;7127;49.372;8.166;2023-08-01T14:32:19;1.08;;;0.80;;
14100;SDS011;7127;49.372;8.166;2023-08-01T14:34:46;0.80;;;0.60;;
14100;SDS011;7127;49.372;8.166;2023-08-01T14:37:13;1.02;;;0.70;;
14100;SDS011;7127;49.372;8.166;2023-08-01T14:39:40;0.88;;;0.85;;
14100;SDS011;7127;49.372;8.166;2023-08-01T14:42:07;0.60;;;0.60;;
14100;SDS011;7127;49.372;8.166;2023-08-01T14:44:35;1.20;;;0.80;;
14100;SDS011;7127;49.372;8.166;2023-08-01T14:47:02;1.00;;;0.80;;
14100;SDS011;7127;49.372;8.166;2023-08-01T14:49:29;1.15;;;0.93;;
14100;SDS011;7127;49.372;8.166;2023-08-01T14:51:55;0.68;;;0.68;;
14100;SDS011;7127;49.372;8.166;2023-08-01T14:54:22;1.15;;;0.80;;
14100;SDS011;7127;49.372;8.166;2023-08-01T14:56:51;1.13;;;0.90;;
14100;SDS011;7127;49.372;8.166;2023-08-01T14:59:18;0.70;;;0.65;;
14100;SDS011;7127;49.372;8.166;2023-08-01T15:01:46;2.25;;;0.90;;